sensor_id;sensor_type;location;lat;lon;timestamp;temperature;humidity
14182;DHT22;7171;50.936;6.764;2024-03-25T00:00:34;7.60;99.90
14182;DHT22;7171;50.936;6.764;2024-03-25T00:03:02;7.60;99.90
14182;DHT22;7171;50.936;6.764;2024-03-25T00:05:28;7.60;99.90
14182;DHT22;7171;50.936;6.764;2024-03-25T00:07:56;7.60;99.90
14182;DHT22;7171;50.936;6.764;2024-03-25T00:10:23;7.60;99.90
14182;DHT22;7171;50.936;6.764;2024-03-25T00:12:50;7.60;99.90
14182;DHT22;7171;50.936;6.764;2024-03-25T00:15:19;7.60;99.90
14182;DHT22;7171;50.936;6.764;2024-03-25T00:17:46;7.60;99.90
14182;DHT22;7171;50.936;6.764;2024-03-25T00:20:14;7.60;99.90
14182;DHT22;7171;50.936;6.764;2024-03-25T00:22:41;7.60;99.90
14182;DHT22;7171;50.936;6.764;2024-03-25T00:25:07;7.60;99.90
14182;DHT22;7171;50.936;6.764;2024-03-25T00:27:35;7.60;99.90
14182;DHT22;7171;50.936;6.764;2024-03-25T00:30:01;7.60;99.90
14182;DHT22;7171;50.936;6.764;2024-03-25T00:32:27;7.60;99.90
14182;DHT22;7171;50.936;6.764;2024-03-25T00:34:53;7.60;99.90
14182;DHT22;7171;50.936;6.764;2024-03-25T00:37:21;7.60;99.90
14182;DHT22;7171;50.936;6.764;2024-03-25T00:39:47;7.50;99.90
14182;DHT22;7171;50.936;6.764;2024-03-25T00:42:14;7.50;99.90
14182;DHT22;7171;50.936;6.764;2024-03-25T00:44:40;7.50;99.90
14182;DHT22;7171;50.936;6.764;2024-03-25T00:47:06;7.50;99.90
14182;DHT22;7171;50.936;6.764;2024-03-25T00:49:32;7.50;99.90
14182;DHT22;7171;50.936;6.764;2024-03-25T00:51:59;7.50;99.90
14182;DHT22;7171;50.936;6.764;2024-03-25T00:54:26;7.50;99.90
14182;DHT22;7171;50.936;6.764;2024-03-25T00:56:53;7.40;99.90
14182;DHT22;7171;50.936;6.764;2024-03-25T00:59:19;7.40;99.90
14182;DHT22;7171;50.936;6.764;2024-03-25T01:01:46;7.40;99.90
14182;DHT22;7171;50.936;6.764;2024-03-25T01:04:12;7.30;99.90
14182;DHT22;7171;50.936;6.764;2024-03-25T01:06:38;7.30;99.90
14182;DHT22;7171;50.936;6.764;2024-03-25T01:09:04;7.30;99.90
14182;DHT22;7171;50.936;6.764;2024-03-25T01:11:33;7.30;99.90
14182;DHT22;7171;50.936;6.764;2024-03-25T01:13:59;7.30;99.90
14182;DHT22;7171;50.936;6.764;2024-03-25T01:16:26;7.20;99.90
14182;DHT22;7171;50.936;6.764;2024-03-25T01:18:52;7.30;99.90
14182;DHT22;7171;50.936;6.764;2024-03-25T01:21:19;7.30;99.90
14182;DHT22;7171;50.936;6.764;2024-03-25T01:23:44;7.20;99.90
14182;DHT22;7171;50.936;6.764;2024-03-25T01:26:11;7.30;99.90
14182;DHT22;7171;50.936;6.764;2024-03-25T01:28:38;7.20;99.90
14182;DHT22;7171;50.936;6.764;2024-03-25T01:31:05;7.20;99.90
14182;DHT22;7171;50.936;6.764;2024-03-25T01:33:31;7.20;99.90
14182;DHT22;7171;50.936;6.764;2024-03-25T01:35:58;7.20;99.90
14182;DHT22;7171;50.936;6.764;2024-03-25T01:38:23;7.20;99.90
14182;DHT22;7171;50.936;6.764;2024-03-25T01:40:50;7.20;99.90
14182;DHT22;7171;50.936;6.764;2024-03-25T01:43:16;7.20;99.90
14182;DHT22;7171;50.936;6.764;2024-03-25T01:45:44;7.10;99.90
14182;DHT22;7171;50.936;6.764;2024-03-25T01:48:10;7.10;99.90
14182;DHT22;7171;50.936;6.764;2024-03-25T01:50:42;7.10;99.90
14182;DHT22;7171;50.936;6.764;2024-03-25T01:53:08;7.10;99.90
14182;DHT22;7171;50.936;6.764;2024-03-25T01:55:37;7.10;99.90
14182;DHT22;7171;50.936;6.764;2024-03-25T01:58:04;7.10;99.90
14182;DHT22;7171;50.936;6.764;2024-03-25T02:00:32;7.00;99.90
14182;DHT22;7171;50.936;6.764;2024-03-25T02:02:59;7.00;99.90
14182;DHT22;7171;50.936;6.764;2024-03-25T02:05:26;7.00;99.90
14182;DHT22;7171;50.936;6.764;2024-03-25T02:07:52;6.90;99.90
14182;DHT22;7171;50.936;6.764;2024-03-25T02:10:20;6.90;99.90
14182;DHT22;7171;50.936;6.764;2024-03-25T02:12:47;6.80;99.90
14182;DHT22;7171;50.936;6.764;2024-03-25T02:15:14;6.80;99.90
14182;DHT22;7171;50.936;6.764;2024-03-25T02:17:40;6.80;99.90
14182;DHT22;7171;50.936;6.764;2024-03-25T02:20:09;6.80;99.90
14182;DHT22;7171;50.936;6.764;2024-03-25T02:22:35;6.80;99.90
14182;DHT22;7171;50.936;6.764;2024-03-25T02:25:06;6.80;99.90
14182;DHT22;7171;50.936;6.764;2024-03-25T02:27:35;6.70;99.90
14182;DHT22;7171;50.936;6.764;2024-03-25T02:30:03;6.80;99.90
14182;DHT22;7171;50.936;6.764;2024-03-25T02:32:31;6.70;99.90
14182;DHT22;7171;50.936;6.764;2024-03-25T02:34:58;6.70;99.90
14182;DHT22;7171;50.936;6.764;2024-03-25T02:37:24;6.70;99.90
14182;DHT22;7171;50.936;6.764;2024-03-25T02:39:52;6.70;99.90
14182;DHT22;7171;50.936;6.764;2024-03-25T02:42:18;6.70;99.90
14182;DHT22;7171;50.936;6.764;2024-03-25T02:44:46;6.70;99.90
14182;DHT22;7171;50.936;6.764;2024-03-25T02:47:12;6.70;99.90
14182;DHT22;7171;50.936;6.764;2024-03-25T02:49:39;6.70;99.90
14182;DHT22;7171;50.936;6.764;2024-03-25T02:52:05;6.60;99.90
14182;DHT22;7171;50.936;6.764;2024-03-25T02:54:32;6.60;99.90
14182;DHT22;7171;50.936;6.764;2024-03-25T02:56:58;6.70;99.90
14182;DHT22;7171;50.936;6.764;2024-03-25T02:59:25;6.60;99.90
14182;DHT22;7171;50.936;6.764;2024-03-25T03:01:52;6.60;99.90
14182;DHT22;7171;50.936;6.764;2024-03-25T03:04:18;6.60;99.90
14182;DHT22;7171;50.936;6.764;2024-03-25T03:06:44;6.60;99.90
14182;DHT22;7171;50.936;6.764;2024-03-25T03:09:11;6.70;99.90
14182;DHT22;7171;50.936;6.764;2024-03-25T03:11:37;6.70;99.90
14182;DHT22;7171;50.936;6.764;2024-03-25T03:14:03;6.70;99.90
14182;DHT22;7171;50.936;6.764;2024-03-25T03:16:29;6.70;99.90
14182;DHT22;7171;50.936;6.764;2024-03-25T03:18:57;6.70;99.90
14182;DHT22;7171;50.936;6.764;2024-03-25T03:21:23;6.80;99.90
14182;DHT22;7171;50.936;6.764;2024-03-25T03:23:50;6.70;99.90
14182;DHT22;7171;50.936;6.764;2024-03-25T03:26:16;6.70;99.90
14182;DHT22;7171;50.936;6.764;2024-03-25T03:28:42;6.70;99.90
14182;DHT22;7171;50.936;6.764;2024-03-25T03:31:08;6.70;99.90
14182;DHT22;7171;50.936;6.764;2024-03-25T03:33:35;6.70;99.90
14182;DHT22;7171;50.936;6.764;2024-03-25T03:36:02;6.70;99.90
14182;DHT22;7171;50.936;6.764;2024-03-25T03:38:29;6.70;99.90
14182;DHT22;7171;50.936;6.764;2024-03-25T03:40:58;6.70;99.90
14182;DHT22;7171;50.936;6.764;2024-03-25T03:43:25;6.70;99.90
14182;DHT22;7171;50.936;6.764;2024-03-25T03:45:51;6.70;99.90
14182;DHT22;7171;50.936;6.764;2024-03-25T03:48:18;6.70;99.90
14182;DHT22;7171;50.936;6.764;2024-03-25T03:50:44;6.70;99.90
14182;DHT22;7171;50.936;6.764;2024-03-25T03:53:12;6.70;99.90
14182;DHT22;7171;50.936;6.764;2024-03-25T03:55:39;6.70;99.90
14182;DHT22;7171;50.936;6.764;2024-03-25T03:58:05;6.70;99.90
14182;DHT22;7171;50.936;6.764;2024-03-25T04:00:33;6.70;99.90
14182;DHT22;7171;50.936;6.764;2024-03-25T04:03:00;6.70;99.90
14182;DHT22;7171;50.936;6.764;2024-03-25T04:05:29;6.70;99.90
14182;DHT22;7171;50.936;6.764;2024-03-25T04:07:56;6.70;99.90
14182;DHT22;7171;50.936;6.764;2024-03-25T04:10:24;6.70;99.90
14182;DHT22;7171;50.936;6.764;2024-03-25T04:12:50;6.60;99.90
14182;DHT22;7171;50.936;6.764;2024-03-25T04:15:17;6.60;99.90
14182;DHT22;7171;50.936;6.764;2024-03-25T04:17:44;6.60;99.90
14182;DHT22;7171;50.936;6.764;2024-03-25T04:20:11;6.60;99.90
14182;DHT22;7171;50.936;6.764;2024-03-25T04:22:41;6.60;99.90
14182;DHT22;7171;50.936;6.764;2024-03-25T04:25:07;6.60;99.90
14182;DHT22;7171;50.936;6.764;2024-03-25T04:27:37;6.60;99.90
14182;DHT22;7171;50.936;6.764;2024-03-25T04:30:05;6.50;99.90
14182;DHT22;7171;50.936;6.764;2024-03-25T04:32:32;6.50;99.90
14182;DHT22;7171;50.936;6.764;2024-03-25T04:34:59;6.40;99.90
14182;DHT22;7171;50.936;6.764;2024-03-25T04:37:25;6.40;99.90
14182;DHT22;7171;50.936;6.764;2024-03-25T04:39:51;6.40;99.90
14182;DHT22;7171;50.936;6.764;2024-03-25T04:42:17;6.30;99.90
14182;DHT22;7171;50.936;6.764;2024-03-25T04:44:44;6.30;99.90
14182;DHT22;7171;50.936;6.764;2024-03-25T04:47:10;6.30;99.90
14182;DHT22;7171;50.936;6.764;2024-03-25T04:49:36;6.30;99.90
14182;DHT22;7171;50.936;6.764;2024-03-25T04:52:01;6.20;99.90
14182;DHT22;7171;50.936;6.764;2024-03-25T04:54:28;6.20;99.90
14182;DHT22;7171;50.936;6.764;2024-03-25T04:56:53;6.10;99.90
14182;DHT22;7171;50.936;6.764;2024-03-25T04:59:19;6.10;99.90
14182;DHT22;7171;50.936;6.764;2024-03-25T05:01:46;6.10;99.90
14182;DHT22;7171;50.936;6.764;2024-03-25T05:04:12;6.00;99.90
14182;DHT22;7171;50.936;6.764;2024-03-25T05:06:38;6.00;99.90
14182;DHT22;7171;50.936;6.764;2024-03-25T05:09:04;5.90;99.90
14182;DHT22;7171;50.936;6.764;2024-03-25T05:11:31;5.90;99.90
14182;DHT22;7171;50.936;6.764;2024-03-25T05:13:56;5.90;99.90
14182;DHT22;7171;50.936;6.764;2024-03-25T05:16:22;5.80;99.90
14182;DHT22;7171;50.936;6.764;2024-03-25T05:18:49;5.80;99.90
14182;DHT22;7171;50.936;6.764;2024-03-25T05:21:15;5.80;99.90
14182;DHT22;7171;50.936;6.764;2024-03-25T05:23:41;5.70;99.90
14182;DHT22;7171;50.936;6.764;2024-03-25T05:26:07;5.70;99.90
14182;DHT22;7171;50.936;6.764;2024-03-25T05:28:33;5.60;99.90
14182;DHT22;7171;50.936;6.764;2024-03-25T05:31:05;5.60;99.90
14182;DHT22;7171;50.936;6.764;2024-03-25T05:33:31;5.60;99.90
14182;DHT22;7171;50.936;6.764;2024-03-25T05:35:58;5.50;99.90
14182;DHT22;7171;50.936;6.764;2024-03-25T05:38:24;5.50;99.90
14182;DHT22;7171;50.936;6.764;2024-03-25T05:40:50;5.50;99.90
14182;DHT22;7171;50.936;6.764;2024-03-25T05:43:15;5.60;99.90
14182;DHT22;7171;50.936;6.764;2024-03-25T05:45:49;5.50;99.90
14182;DHT22;7171;50.936;6.764;2024-03-25T05:48:15;5.60;99.90
14182;DHT22;7171;50.936;6.764;2024-03-25T05:50:41;5.60;99.90
14182;DHT22;7171;50.936;6.764;2024-03-25T05:53:08;5.60;99.90
14182;DHT22;7171;50.936;6.764;2024-03-25T05:55:34;5.60;99.90
14182;DHT22;7171;50.936;6.764;2024-03-25T05:58:00;5.60;99.90
14182;DHT22;7171;50.936;6.764;2024-03-25T06:00:26;5.60;99.90
14182;DHT22;7171;50.936;6.764;2024-03-25T06:02:51;5.60;99.90
14182;DHT22;7171;50.936;6.764;2024-03-25T06:05:18;5.60;99.90
14182;DHT22;7171;50.936;6.764;2024-03-25T06:07:44;5.60;99.90
14182;DHT22;7171;50.936;6.764;2024-03-25T06:10:11;5.60;99.90
14182;DHT22;7171;50.936;6.764;2024-03-25T06:12:37;5.60;99.90
14182;DHT22;7171;50.936;6.764;2024-03-25T06:15:03;5.70;99.90
14182;DHT22;7171;50.936;6.764;2024-03-25T06:17:29;5.70;99.90
14182;DHT22;7171;50.936;6.764;2024-03-25T06:19:55;5.70;99.90
14182;DHT22;7171;50.936;6.764;2024-03-25T06:22:21;5.70;99.90
14182;DHT22;7171;50.936;6.764;2024-03-25T06:24:47;5.70;99.90
14182;DHT22;7171;50.936;6.764;2024-03-25T06:27:14;5.70;99.90
14182;DHT22;7171;50.936;6.764;2024-03-25T06:29:40;5.80;99.90
14182;DHT22;7171;50.936;6.764;2024-03-25T06:32:06;5.80;99.90
14182;DHT22;7171;50.936;6.764;2024-03-25T06:34:50;5.80;99.90
14182;DHT22;7171;50.936;6.764;2024-03-25T06:37:16;5.90;99.90
14182;DHT22;7171;50.936;6.764;2024-03-25T06:39:41;5.90;99.90
14182;DHT22;7171;50.936;6.764;2024-03-25T06:42:07;5.90;99.90
14182;DHT22;7171;50.936;6.764;2024-03-25T06:44:34;6.00;99.90
14182;DHT22;7171;50.936;6.764;2024-03-25T06:47:00;6.00;99.90
14182;DHT22;7171;50.936;6.764;2024-03-25T06:49:26;6.10;99.90
14182;DHT22;7171;50.936;6.764;2024-03-25T06:51:52;6.10;99.90
14182;DHT22;7171;50.936;6.764;2024-03-25T06:54:18;6.20;99.90
14182;DHT22;7171;50.936;6.764;2024-03-25T06:56:44;6.20;99.90
14182;DHT22;7171;50.936;6.764;2024-03-25T06:59:09;6.30;99.90
14182;DHT22;7171;50.936;6.764;2024-03-25T07:01:37;6.30;99.90
14182;DHT22;7171;50.936;6.764;2024-03-25T07:04:02;6.40;99.90
14182;DHT22;7171;50.936;6.764;2024-03-25T07:06:28;6.40;99.90
14182;DHT22;7171;50.936;6.764;2024-03-25T07:08:54;6.50;99.90
14182;DHT22;7171;50.936;6.764;2024-03-25T07:11:20;6.50;99.90
14182;DHT22;7171;50.936;6.764;2024-03-25T07:13:46;6.60;99.90
14182;DHT22;7171;50.936;6.764;2024-03-25T07:16:12;6.60;99.90
14182;DHT22;7171;50.936;6.764;2024-03-25T07:18:40;6.70;99.90
14182;DHT22;7171;50.936;6.764;2024-03-25T07:21:05;6.70;99.90
14182;DHT22;7171;50.936;6.764;2024-03-25T07:23:31;6.80;99.90
14182;DHT22;7171;50.936;6.764;2024-03-25T07:25:57;6.90;99.90
14182;DHT22;7171;50.936;6.764;2024-03-25T07:30:50;7.00;99.90
14182;DHT22;7171;50.936;6.764;2024-03-25T07:33:15;7.00;99.90
14182;DHT22;7171;50.936;6.764;2024-03-25T07:35:44;7.10;99.90
14182;DHT22;7171;50.936;6.764;2024-03-25T07:38:10;7.20;99.90
14182;DHT22;7171;50.936;6.764;2024-03-25T07:40:36;7.20;99.90
14182;DHT22;7171;50.936;6.764;2024-03-25T07:43:02;7.30;99.90
14182;DHT22;7171;50.936;6.764;2024-03-25T07:45:27;7.30;99.90
14182;DHT22;7171;50.936;6.764;2024-03-25T07:47:53;7.40;99.90
14182;DHT22;7171;50.936;6.764;2024-03-25T07:50:19;7.40;99.90
14182;DHT22;7171;50.936;6.764;2024-03-25T07:52:47;7.50;99.90
14182;DHT22;7171;50.936;6.764;2024-03-25T07:55:13;7.50;99.90
14182;DHT22;7171;50.936;6.764;2024-03-25T07:57:38;7.60;99.90
14182;DHT22;7171;50.936;6.764;2024-03-25T08:00:05;7.60;99.90
14182;DHT22;7171;50.936;6.764;2024-03-25T08:02:31;7.70;99.90
14182;DHT22;7171;50.936;6.764;2024-03-25T08:04:57;7.80;99.90
14182;DHT22;7171;50.936;6.764;2024-03-25T08:07:23;7.80;99.90
14182;DHT22;7171;50.936;6.764;2024-03-25T08:09:50;7.90;99.90
14182;DHT22;7171;50.936;6.764;2024-03-25T08:12:16;7.90;99.90
14182;DHT22;7171;50.936;6.764;2024-03-25T08:14:42;7.90;99.90
14182;DHT22;7171;50.936;6.764;2024-03-25T08:17:09;8.00;99.90
14182;DHT22;7171;50.936;6.764;2024-03-25T08:19:34;8.00;99.90
14182;DHT22;7171;50.936;6.764;2024-03-25T08:22:00;8.10;99.90
14182;DHT22;7171;50.936;6.764;2024-03-25T08:24:26;8.10;99.90
14182;DHT22;7171;50.936;6.764;2024-03-25T08:26:53;8.20;99.90
14182;DHT22;7171;50.936;6.764;2024-03-25T08:29:19;8.30;99.90
14182;DHT22;7171;50.936;6.764;2024-03-25T08:31:45;8.40;99.90
14182;DHT22;7171;50.936;6.764;2024-03-25T08:34:11;8.40;99.90
14182;DHT22;7171;50.936;6.764;2024-03-25T08:36:37;8.40;99.90
14182;DHT22;7171;50.936;6.764;2024-03-25T08:39:02;8.60;99.90
14182;DHT22;7171;50.936;6.764;2024-03-25T08:41:28;8.70;99.90
14182;DHT22;7171;50.936;6.764;2024-03-25T08:43:56;8.80;99.90
14182;DHT22;7171;50.936;6.764;2024-03-25T08:46:21;8.80;99.90
14182;DHT22;7171;50.936;6.764;2024-03-25T08:48:47;8.90;99.90
14182;DHT22;7171;50.936;6.764;2024-03-25T08:51:13;9.00;99.90
14182;DHT22;7171;50.936;6.764;2024-03-25T08:53:39;9.10;99.90
14182;DHT22;7171;50.936;6.764;2024-03-25T08:56:05;9.20;99.90
14182;DHT22;7171;50.936;6.764;2024-03-25T08:58:31;9.30;99.90
14182;DHT22;7171;50.936;6.764;2024-03-25T09:00:58;9.30;99.90
14182;DHT22;7171;50.936;6.764;2024-03-25T09:03:24;9.40;99.90
14182;DHT22;7171;50.936;6.764;2024-03-25T09:05:50;9.50;99.90
14182;DHT22;7171;50.936;6.764;2024-03-25T09:08:16;9.50;99.90
14182;DHT22;7171;50.936;6.764;2024-03-25T09:10:43;9.60;99.90
14182;DHT22;7171;50.936;6.764;2024-03-25T09:13:27;9.70;99.90
14182;DHT22;7171;50.936;6.764;2024-03-25T09:15:53;9.70;99.90
14182;DHT22;7171;50.936;6.764;2024-03-25T09:18:20;9.80;99.90
14182;DHT22;7171;50.936;6.764;2024-03-25T09:20:46;10.20;99.90
14182;DHT22;7171;50.936;6.764;2024-03-25T09:23:12;9.90;99.90
14182;DHT22;7171;50.936;6.764;2024-03-25T09:25:37;10.00;99.90
14182;DHT22;7171;50.936;6.764;2024-03-25T09:28:04;10.00;99.90
14182;DHT22;7171;50.936;6.764;2024-03-25T09:30:30;10.10;99.90
14182;DHT22;7171;50.936;6.764;2024-03-25T09:32:55;10.20;99.90
14182;DHT22;7171;50.936;6.764;2024-03-25T09:35:23;10.20;99.90
14182;DHT22;7171;50.936;6.764;2024-03-25T09:37:48;10.30;99.90
14182;DHT22;7171;50.936;6.764;2024-03-25T09:40:14;10.30;99.90
14182;DHT22;7171;50.936;6.764;2024-03-25T09:42:46;10.40;99.90
14182;DHT22;7171;50.936;6.764;2024-03-25T09:45:13;10.40;99.90
14182;DHT22;7171;50.936;6.764;2024-03-25T09:47:42;9.80;99.90
14182;DHT22;7171;50.936;6.764;2024-03-25T09:50:09;10.50;99.90
14182;DHT22;7171;50.936;6.764;2024-03-25T09:52:37;10.50;99.90
14182;DHT22;7171;50.936;6.764;2024-03-25T09:55:03;10.60;99.90
14182;DHT22;7171;50.936;6.764;2024-03-25T09:57:29;10.70;99.90
14182;DHT22;7171;50.936;6.764;2024-03-25T09:59:56;10.70;99.90
14182;DHT22;7171;50.936;6.764;2024-03-25T10:02:22;10.70;99.90
14182;DHT22;7171;50.936;6.764;2024-03-25T10:04:48;10.80;99.90
14182;DHT22;7171;50.936;6.764;2024-03-25T10:07:21;10.90;99.90
14182;DHT22;7171;50.936;6.764;2024-03-25T10:09:49;11.00;99.90
14182;DHT22;7171;50.936;6.764;2024-03-25T10:12:15;11.10;99.90
14182;DHT22;7171;50.936;6.764;2024-03-25T10:14:41;11.30;99.90
14182;DHT22;7171;50.936;6.764;2024-03-25T10:17:07;11.20;99.90
14182;DHT22;7171;50.936;6.764;2024-03-25T10:19:32;11.20;99.90
14182;DHT22;7171;50.936;6.764;2024-03-25T10:22:05;11.20;99.90
14182;DHT22;7171;50.936;6.764;2024-03-25T10:24:39;11.30;99.90
14182;DHT22;7171;50.936;6.764;2024-03-25T10:27:10;11.30;99.90
14182;DHT22;7171;50.936;6.764;2024-03-25T10:29:36;11.40;99.90
14182;DHT22;7171;50.936;6.764;2024-03-25T10:32:02;11.50;99.90
14182;DHT22;7171;50.936;6.764;2024-03-25T10:34:28;10.60;99.90
14182;DHT22;7171;50.936;6.764;2024-03-25T10:36:57;11.60;99.90
14182;DHT22;7171;50.936;6.764;2024-03-25T10:39:26;11.70;99.90
14182;DHT22;7171;50.936;6.764;2024-03-25T10:41:55;11.70;99.90
14182;DHT22;7171;50.936;6.764;2024-03-25T10:44:23;11.80;99.90
14182;DHT22;7171;50.936;6.764;2024-03-25T10:46:53;11.90;99.90
14182;DHT22;7171;50.936;6.764;2024-03-25T10:49:28;11.90;99.90
14182;DHT22;7171;50.936;6.764;2024-03-25T10:51:59;12.30;99.90
14182;DHT22;7171;50.936;6.764;2024-03-25T10:54:25;12.00;99.90
14182;DHT22;7171;50.936;6.764;2024-03-25T10:56:54;12.10;99.90
14182;DHT22;7171;50.936;6.764;2024-03-25T10:59:21;12.10;99.90
14182;DHT22;7171;50.936;6.764;2024-03-25T11:01:49;12.20;99.90
14182;DHT22;7171;50.936;6.764;2024-03-25T11:04:15;12.90;99.90
14182;DHT22;7171;50.936;6.764;2024-03-25T11:06:41;12.30;99.90
14182;DHT22;7171;50.936;6.764;2024-03-25T11:09:07;12.30;99.90
14182;DHT22;7171;50.936;6.764;2024-03-25T11:11:33;12.30;99.90
14182;DHT22;7171;50.936;6.764;2024-03-25T11:14:02;12.90;99.90
14182;DHT22;7171;50.936;6.764;2024-03-25T11:16:29;12.40;99.90
14182;DHT22;7171;50.936;6.764;2024-03-25T11:19:00;13.30;99.90
14182;DHT22;7171;50.936;6.764;2024-03-25T11:23:54;12.30;99.90
14182;DHT22;7171;50.936;6.764;2024-03-25T11:26:21;12.40;99.90
14182;DHT22;7171;50.936;6.764;2024-03-25T11:28:48;12.50;99.90
14182;DHT22;7171;50.936;6.764;2024-03-25T11:31:14;12.50;99.90
14182;DHT22;7171;50.936;6.764;2024-03-25T11:33:41;12.60;99.90
14182;DHT22;7171;50.936;6.764;2024-03-25T11:36:09;12.60;99.90
14182;DHT22;7171;50.936;6.764;2024-03-25T11:38:35;12.60;99.90
14182;DHT22;7171;50.936;6.764;2024-03-25T11:41:01;12.70;99.90
14182;DHT22;7171;50.936;6.764;2024-03-25T11:43:27;12.80;99.90
14182;DHT22;7171;50.936;6.764;2024-03-25T11:45:53;12.80;99.90
14182;DHT22;7171;50.936;6.764;2024-03-25T11:48:19;12.80;99.90
14182;DHT22;7171;50.936;6.764;2024-03-25T11:50:46;12.90;99.90
14182;DHT22;7171;50.936;6.764;2024-03-25T11:53:14;12.90;99.90
14182;DHT22;7171;50.936;6.764;2024-03-25T11:55:40;12.90;99.90
14182;DHT22;7171;50.936;6.764;2024-03-25T11:58:07;13.00;99.90
14182;DHT22;7171;50.936;6.764;2024-03-25T12:00:33;13.00;99.90
14182;DHT22;7171;50.936;6.764;2024-03-25T12:02:59;13.00;99.90
14182;DHT22;7171;50.936;6.764;2024-03-25T12:05:25;13.00;99.90
14182;DHT22;7171;50.936;6.764;2024-03-25T12:07:51;13.00;99.90
14182;DHT22;7171;50.936;6.764;2024-03-25T12:10:19;13.00;99.90
14182;DHT22;7171;50.936;6.764;2024-03-25T12:13:03;13.00;99.90
14182;DHT22;7171;50.936;6.764;2024-03-25T12:15:29;13.10;99.90
14182;DHT22;7171;50.936;6.764;2024-03-25T12:17:55;13.10;99.90
14182;DHT22;7171;50.936;6.764;2024-03-25T12:20:21;13.10;99.90
14182;DHT22;7171;50.936;6.764;2024-03-25T12:22:48;13.10;99.90
14182;DHT22;7171;50.936;6.764;2024-03-25T12:25:14;13.10;99.90
14182;DHT22;7171;50.936;6.764;2024-03-25T12:27:46;13.10;99.90
14182;DHT22;7171;50.936;6.764;2024-03-25T12:30:12;13.20;99.90
14182;DHT22;7171;50.936;6.764;2024-03-25T12:32:38;13.20;99.90
14182;DHT22;7171;50.936;6.764;2024-03-25T12:35:08;13.30;99.90
14182;DHT22;7171;50.936;6.764;2024-03-25T12:37:35;13.30;99.90
14182;DHT22;7171;50.936;6.764;2024-03-25T12:40:02;13.30;99.90
14182;DHT22;7171;50.936;6.764;2024-03-25T12:42:28;13.30;99.90
14182;DHT22;7171;50.936;6.764;2024-03-25T12:44:55;13.40;99.90
14182;DHT22;7171;50.936;6.764;2024-03-25T12:47:21;13.40;99.90
14182;DHT22;7171;50.936;6.764;2024-03-25T12:49:47;13.50;99.90
14182;DHT22;7171;50.936;6.764;2024-03-25T12:52:13;13.50;99.90
14182;DHT22;7171;50.936;6.764;2024-03-25T12:54:39;13.50;99.90
14182;DHT22;7171;50.936;6.764;2024-03-25T12:57:05;13.60;99.90
14182;DHT22;7171;50.936;6.764;2024-03-25T12:59:31;13.60;99.90
14182;DHT22;7171;50.936;6.764;2024-03-25T13:01:59;13.60;99.90
14182;DHT22;7171;50.936;6.764;2024-03-25T13:04:26;13.60;99.90
14182;DHT22;7171;50.936;6.764;2024-03-25T13:06:52;13.60;99.90
14182;DHT22;7171;50.936;6.764;2024-03-25T13:09:17;13.60;99.90
14182;DHT22;7171;50.936;6.764;2024-03-25T13:11:43;13.70;99.90
14182;DHT22;7171;50.936;6.764;2024-03-25T13:14:11;13.80;99.90
14182;DHT22;7171;50.936;6.764;2024-03-25T13:16:37;13.80;99.90
14182;DHT22;7171;50.936;6.764;2024-03-25T13:19:04;13.90;99.90
14182;DHT22;7171;50.936;6.764;2024-03-25T13:21:30;14.00;99.90
14182;DHT22;7171;50.936;6.764;2024-03-25T13:23:56;14.00;99.90
14182;DHT22;7171;50.936;6.764;2024-03-25T13:26:22;14.10;99.90
14182;DHT22;7171;50.936;6.764;2024-03-25T13:28:48;14.10;99.90
14182;DHT22;7171;50.936;6.764;2024-03-25T13:31:14;14.20;99.90
14182;DHT22;7171;50.936;6.764;2024-03-25T13:33:41;14.20;99.90
14182;DHT22;7171;50.936;6.764;2024-03-25T13:36:08;14.20;99.90
14182;DHT22;7171;50.936;6.764;2024-03-25T13:38:34;14.20;99.90
14182;DHT22;7171;50.936;6.764;2024-03-25T13:41:01;14.20;99.90
14182;DHT22;7171;50.936;6.764;2024-03-25T13:43:27;14.10;99.90
14182;DHT22;7171;50.936;6.764;2024-03-25T13:45:53;14.10;99.90
14182;DHT22;7171;50.936;6.764;2024-03-25T13:48:19;14.10;99.90
14182;DHT22;7171;50.936;6.764;2024-03-25T13:50:45;14.10;99.90
14182;DHT22;7171;50.936;6.764;2024-03-25T13:53:12;14.10;99.90
14182;DHT22;7171;50.936;6.764;2024-03-25T13:55:38;14.10;99.90
14182;DHT22;7171;50.936;6.764;2024-03-25T13:58:04;14.10;99.90
14182;DHT22;7171;50.936;6.764;2024-03-25T14:00:30;14.20;99.90
14182;DHT22;7171;50.936;6.764;2024-03-25T14:02:55;14.20;99.90
14182;DHT22;7171;50.936;6.764;2024-03-25T14:05:21;14.30;99.90
14182;DHT22;7171;50.936;6.764;2024-03-25T14:07:48;14.30;99.90
14182;DHT22;7171;50.936;6.764;2024-03-25T14:10:15;14.30;99.90
14182;DHT22;7171;50.936;6.764;2024-03-25T14:12:41;14.20;99.90
14182;DHT22;7171;50.936;6.764;2024-03-25T14:15:08;14.20;99.90
14182;DHT22;7171;50.936;6.764;2024-03-25T14:17:34;14.20;99.90
14182;DHT22;7171;50.936;6.764;2024-03-25T14:19:59;14.10;99.90
14182;DHT22;7171;50.936;6.764;2024-03-25T14:22:25;14.20;99.90
14182;DHT22;7171;50.936;6.764;2024-03-25T14:24:51;14.20;99.90
14182;DHT22;7171;50.936;6.764;2024-03-25T14:27:19;14.20;99.90
14182;DHT22;7171;50.936;6.764;2024-03-25T14:29:45;14.20;99.90
14182;DHT22;7171;50.936;6.764;2024-03-25T14:32:11;14.20;99.90
14182;DHT22;7171;50.936;6.764;2024-03-25T14:34:37;14.30;99.90
14182;DHT22;7171;50.936;6.764;2024-03-25T14:37:03;14.30;99.90
14182;DHT22;7171;50.936;6.764;2024-03-25T14:39:28;14.30;99.90
14182;DHT22;7171;50.936;6.764;2024-03-25T14:41:54;14.30;99.90
14182;DHT22;7171;50.936;6.764;2024-03-25T14:44:22;14.30;99.90
14182;DHT22;7171;50.936;6.764;2024-03-25T14:46:47;14.30;99.90
14182;DHT22;7171;50.936;6.764;2024-03-25T14:49:13;14.30;99.90
14182;DHT22;7171;50.936;6.764;2024-03-25T14:51:39;14.30;99.90
14182;DHT22;7171;50.936;6.764;2024-03-25T14:54:05;14.30;99.90
14182;DHT22;7171;50.936;6.764;2024-03-25T14:56:31;14.30;99.90
14182;DHT22;7171;50.936;6.764;2024-03-25T14:58:57;14.30;99.90
14182;DHT22;7171;50.936;6.764;2024-03-25T15:01:25;14.30;99.90
14182;DHT22;7171;50.936;6.764;2024-03-25T15:03:51;14.30;99.90
14182;DHT22;7171;50.936;6.764;2024-03-25T15:06:16;14.20;99.90
14182;DHT22;7171;50.936;6.764;2024-03-25T15:08:42;14.20;99.90
14182;DHT22;7171;50.936;6.764;2024-03-25T15:11:10;14.20;99.90
14182;DHT22;7171;50.936;6.764;2024-03-25T15:13:36;14.20;99.90
14182;DHT22;7171;50.936;6.764;2024-03-25T15:16:04;14.30;99.90
14182;DHT22;7171;50.936;6.764;2024-03-25T15:18:31;14.30;99.90
14182;DHT22;7171;50.936;6.764;2024-03-25T15:21:01;14.40;99.90
14182;DHT22;7171;50.936;6.764;2024-03-25T15:23:27;14.60;99.90
14182;DHT22;7171;50.936;6.764;2024-03-25T15:25:53;14.80;99.90
14182;DHT22;7171;50.936;6.764;2024-03-25T15:28:19;15.00;99.90
14182;DHT22;7171;50.936;6.764;2024-03-25T15:30:46;15.20;99.90
14182;DHT22;7171;50.936;6.764;2024-03-25T15:33:12;15.50;99.90
14182;DHT22;7171;50.936;6.764;2024-03-25T15:35:39;15.90;99.90
14182;DHT22;7171;50.936;6.764;2024-03-25T15:38:05;16.10;99.90
14182;DHT22;7171;50.936;6.764;2024-03-25T15:40:31;16.30;99.90
14182;DHT22;7171;50.936;6.764;2024-03-25T15:42:59;16.50;99.90
14182;DHT22;7171;50.936;6.764;2024-03-25T15:45:26;16.60;99.90
14182;DHT22;7171;50.936;6.764;2024-03-25T15:47:51;16.60;99.90
14182;DHT22;7171;50.936;6.764;2024-03-25T15:50:17;16.80;99.90
14182;DHT22;7171;50.936;6.764;2024-03-25T15:52:44;16.90;99.90
14182;DHT22;7171;50.936;6.764;2024-03-25T15:55:10;17.10;99.90